sensor_id;sensor_type;location;lat;lon;timestamp;pressure;altitude;pressure_sealevel;temperature;humidity
13661;BME280;6903;49.480;11.102;2023-04-24T00:00:00;96871.28;;;11.29;100.00
13661;BME280;6903;49.480;11.102;2023-04-24T00:02:25;96881.75;;;11.21;100.00
13661;BME280;6903;49.480;11.102;2023-04-24T00:04:51;96887.16;;;11.19;100.00
13661;BME280;6903;49.480;11.102;2023-04-24T00:07:16;96879.25;;;11.19;100.00
13661;BME280;6903;49.480;11.102;2023-04-24T00:09:42;96890.94;;;11.17;100.00
13661;BME280;6903;49.480;11.102;2023-04-24T00:12:09;96890.25;;;11.15;100.00
13661;BME280;6903;49.480;11.102;2023-04-24T00:14:34;96879.34;;;11.10;100.00
13661;BME280;6903;49.480;11.102;2023-04-24T00:17:00;96880.31;;;11.09;100.00
13661;BME280;6903;49.480;11.102;2023-04-24T00:19:26;96881.91;;;11.02;100.00
13661;BME280;6903;49.480;11.102;2023-04-24T00:21:51;96883.19;;;10.98;100.00
13661;BME280;6903;49.480;11.102;2023-04-24T00:24:17;96880.56;;;10.98;100.00
13661;BME280;6903;49.480;11.102;2023-04-24T00:26:43;96879.88;;;10.96;100.00
13661;BME280;6903;49.480;11.102;2023-04-24T00:29:08;96885.00;;;10.97;100.00
13661;BME280;6903;49.480;11.102;2023-04-24T00:31:34;96892.75;;;10.99;100.00
13661;BME280;6903;49.480;11.102;2023-04-24T00:34:03;96889.44;;;10.97;100.00
13661;BME280;6903;49.480;11.102;2023-04-24T00:36:28;96889.56;;;10.95;100.00
13661;BME280;6903;49.480;11.102;2023-04-24T00:38:55;96889.72;;;10.94;100.00
13661;BME280;6903;49.480;11.102;2023-04-24T00:41:21;96886.44;;;10.92;100.00
13661;BME280;6903;49.480;11.102;2023-04-24T00:43:47;96886.44;;;10.92;100.00
13661;BME280;6903;49.480;11.102;2023-04-24T00:46:12;96891.84;;;10.90;100.00
13661;BME280;6903;49.480;11.102;2023-04-24T00:48:40;96880.47;;;10.90;100.00
13661;BME280;6903;49.480;11.102;2023-04-24T00:51:06;96873.53;;;10.89;100.00
13661;BME280;6903;49.480;11.102;2023-04-24T00:53:31;96864.94;;;10.87;100.00
13661;BME280;6903;49.480;11.102;2023-04-24T00:55:58;96868.84;;;10.83;100.00
13661;BME280;6903;49.480;11.102;2023-04-24T00:58:23;96861.63;;;10.85;100.00
13661;BME280;6903;49.480;11.102;2023-04-24T01:00:50;96867.75;;;10.85;100.00
13661;BME280;6903;49.480;11.102;2023-04-24T01:03:19;96864.94;;;10.87;100.00
13661;BME280;6903;49.480;11.102;2023-04-24T01:05:45;96864.94;;;10.87;100.00
13661;BME280;6903;49.480;11.102;2023-04-24T01:08:11;96863.28;;;10.86;100.00
13661;BME280;6903;49.480;11.102;2023-04-24T01:10:37;96872.72;;;10.88;100.00
13661;BME280;6903;49.480;11.102;2023-04-24T01:13:03;96875.19;;;10.90;100.00
13661;BME280;6903;49.480;11.102;2023-04-24T01:15:29;96876.03;;;10.90;100.00
13661;BME280;6903;49.480;11.102;2023-04-24T01:17:54;96870.75;;;10.90;100.00
13661;BME280;6903;49.480;11.102;2023-04-24T01:20:20;96858.69;;;10.88;100.00
13661;BME280;6903;49.480;11.102;2023-04-24T01:22:46;96868.25;;;10.89;100.00
13661;BME280;6903;49.480;11.102;2023-04-24T01:25:12;96864.66;;;10.90;100.00
13661;BME280;6903;49.480;11.102;2023-04-24T01:27:37;96876.84;;;10.91;100.00
13661;BME280;6903;49.480;11.102;2023-04-24T01:30:03;96876.03;;;10.90;100.00
13661;BME280;6903;49.480;11.102;2023-04-24T01:32:28;96874.22;;;10.91;100.00
13661;BME280;6903;49.480;11.102;2023-04-24T01:34:54;96879.03;;;10.95;100.00
13661;BME280;6903;49.480;11.102;2023-04-24T01:37:20;96872.63;;;10.98;100.00
13661;BME280;6903;49.480;11.102;2023-04-24T01:39:45;96870.84;;;10.98;100.00
13661;BME280;6903;49.480;11.102;2023-04-24T01:42:11;96875.13;;;10.99;100.00
13661;BME280;6903;49.480;11.102;2023-04-24T01:44:37;96872.88;;;11.04;100.00
13661;BME280;6903;49.480;11.102;2023-04-24T01:47:02;96874.66;;;11.04;100.00
13661;BME280;6903;49.480;11.102;2023-04-24T01:49:27;96869.41;;;11.04;100.00
13661;BME280;6903;49.480;11.102;2023-04-24T01:51:53;96872.72;;;11.06;100.00
13661;BME280;6903;49.480;11.102;2023-04-24T01:54:18;96870.06;;;11.06;100.00
13661;BME280;6903;49.480;11.102;2023-04-24T01:56:45;96865.47;;;11.08;100.00
13661;BME280;6903;49.480;11.102;2023-04-24T01:59:11;96870.59;;;11.09;100.00
13661;BME280;6903;49.480;11.102;2023-04-24T02:01:37;96859.22;;;11.09;100.00
13661;BME280;6903;49.480;11.102;2023-04-24T02:04:04;96860.06;;;11.09;100.00
13661;BME280;6903;49.480;11.102;2023-04-24T02:06:29;96847.53;;;11.11;100.00
13661;BME280;6903;49.480;11.102;2023-04-24T02:08:57;96851.00;;;11.12;100.00
13661;BME280;6903;49.480;11.102;2023-04-24T02:11:22;96847.53;;;11.11;100.00
13661;BME280;6903;49.480;11.102;2023-04-24T02:13:47;96844.75;;;11.13;100.00
13661;BME280;6903;49.480;11.102;2023-04-24T02:16:13;96843.91;;;11.12;100.00
13661;BME280;6903;49.480;11.102;2023-04-24T02:18:38;96828.94;;;11.13;100.00
13661;BME280;6903;49.480;11.102;2023-04-24T02:21:03;96827.78;;;11.15;100.00
13661;BME280;6903;49.480;11.102;2023-04-24T02:23:29;96821.28;;;11.10;100.00
13661;BME280;6903;49.480;11.102;2023-04-24T02:25:54;96830.03;;;11.10;100.00
13661;BME280;6903;49.480;11.102;2023-04-24T02:28:20;96831.69;;;11.11;100.00
13661;BME280;6903;49.480;11.102;2023-04-24T02:30:46;96821.44;;;11.08;100.00
13661;BME280;6903;49.480;11.102;2023-04-24T02:33:11;96825.91;;;11.08;100.00
13661;BME280;6903;49.480;11.102;2023-04-24T02:35:37;96833.31;;;11.04;100.00
13661;BME280;6903;49.480;11.102;2023-04-24T02:38:02;96826.50;;;11.02;100.00
13661;BME280;6903;49.480;11.102;2023-04-24T02:40:28;96820.41;;;11.01;100.00
13661;BME280;6903;49.480;11.102;2023-04-24T02:42:53;96824.03;;;11.00;100.00
13661;BME280;6903;49.480;11.102;2023-04-24T02:45:18;96817.94;;;11.00;100.00
13661;BME280;6903;49.480;11.102;2023-04-24T02:47:44;96825.16;;;10.98;100.00
13661;BME280;6903;49.480;11.102;2023-04-24T02:50:09;96822.84;;;10.95;100.00
13661;BME280;6903;49.480;11.102;2023-04-24T02:52:35;96823.53;;;10.97;100.00
13661;BME280;6903;49.480;11.102;2023-04-24T02:55:00;96819.91;;;10.98;100.00
13661;BME280;6903;49.480;11.102;2023-04-24T02:57:25;96825.69;;;11.01;100.00
13661;BME280;6903;49.480;11.102;2023-04-24T02:59:51;96815.94;;;11.02;100.00
13661;BME280;6903;49.480;11.102;2023-04-24T03:02:16;96829.97;;;11.02;100.00
13661;BME280;6903;49.480;11.102;2023-04-24T03:04:41;96822.22;;;11.01;100.00
13661;BME280;6903;49.480;11.102;2023-04-24T03:07:09;96821.69;;;10.97;100.00
13661;BME280;6903;49.480;11.102;2023-04-24T03:09:34;96823.06;;;11.01;100.00
13661;BME280;6903;49.480;11.102;2023-04-24T03:12:00;96822.59;;;11.06;100.00
13661;BME280;6903;49.480;11.102;2023-04-24T03:14:25;96824.25;;;11.07;100.00
13661;BME280;6903;49.480;11.102;2023-04-24T03:16:50;96819.66;;;11.09;100.00
13661;BME280;6903;49.480;11.102;2023-04-24T03:19:16;96819.66;;;11.09;100.00
13661;BME280;6903;49.480;11.102;2023-04-24T03:21:41;96817.00;;;11.09;100.00
13661;BME280;6903;49.480;11.102;2023-04-24T03:24:07;96818.16;;;11.06;100.00
13661;BME280;6903;49.480;11.102;2023-04-24T03:26:33;96815.94;;;11.02;100.00
13661;BME280;6903;49.480;11.102;2023-04-24T03:28:59;96812.66;;;11.00;100.00
13661;BME280;6903;49.480;11.102;2023-04-24T03:31:24;96810.69;;;11.02;100.00
13661;BME280;6903;49.480;11.102;2023-04-24T03:33:49;96818.59;;;11.02;100.00
13661;BME280;6903;49.480;11.102;2023-04-24T03:36:15;96814.31;;;11.01;100.00
13661;BME280;6903;49.480;11.102;2023-04-24T03:38:40;96815.31;;;11.00;100.00
13661;BME280;6903;49.480;11.102;2023-04-24T03:41:05;96816.88;;;10.93;100.00
13661;BME280;6903;49.480;11.102;2023-04-24T03:43:30;96821.47;;;10.91;100.00
13661;BME280;6903;49.480;11.102;2023-04-24T03:45:58;96818.44;;;10.86;100.00
13661;BME280;6903;49.480;11.102;2023-04-24T03:48:23;96820.44;;;10.84;100.00
13661;BME280;6903;49.480;11.102;2023-04-24T03:50:49;96811.84;;;10.82;100.00
13661;BME280;6903;49.480;11.102;2023-04-24T03:53:14;96815.31;;;10.82;100.00
13661;BME280;6903;49.480;11.102;2023-04-24T03:55:40;96822.38;;;10.82;100.00
13661;BME280;6903;49.480;11.102;2023-04-24T03:58:05;96821.31;;;10.75;100.00
13661;BME280;6903;49.480;11.102;2023-04-24T04:00:31;96825.78;;;10.74;100.00
13661;BME280;6903;49.480;11.102;2023-04-24T04:02:57;96823.25;;;10.73;100.00
13661;BME280;6903;49.480;11.102;2023-04-24T04:05:22;96833.31;;;10.69;100.00
13661;BME280;6903;49.480;11.102;2023-04-24T04:07:47;96833.31;;;10.69;100.00
13661;BME280;6903;49.480;11.102;2023-04-24T04:10:13;96834.25;;;10.68;100.00
13661;BME280;6903;49.480;11.102;2023-04-24T04:12:38;96835.41;;;10.66;100.00
13661;BME280;6903;49.480;11.102;2023-04-24T04:15:04;96833.72;;;10.65;100.00
13661;BME280;6903;49.480;11.102;2023-04-24T04:17:31;96826.50;;;10.67;100.00
13661;BME280;6903;49.480;11.102;2023-04-24T04:19:56;96828.47;;;10.65;100.00
13661;BME280;6903;49.480;11.102;2023-04-24T04:22:22;96827.34;;;10.67;100.00
13661;BME280;6903;49.480;11.102;2023-04-24T04:24:47;96821.94;;;10.69;100.00
13661;BME280;6903;49.480;11.102;2023-04-24T04:27:13;96820.13;;;10.69;100.00
13661;BME280;6903;49.480;11.102;2023-04-24T04:29:38;96825.09;;;10.72;100.00
13661;BME280;6903;49.480;11.102;2023-04-24T04:32:05;96830.22;;;10.74;100.00
13661;BME280;6903;49.480;11.102;2023-04-24T04:34:31;96828.25;;;10.76;100.00
13661;BME280;6903;49.480;11.102;2023-04-24T04:36:57;96820.34;;;10.76;100.00
13661;BME280;6903;49.480;11.102;2023-04-24T04:39:24;96830.91;;;10.76;100.00
13661;BME280;6903;49.480;11.102;2023-04-24T04:41:50;96828.13;;;10.77;100.00
13661;BME280;6903;49.480;11.102;2023-04-24T04:44:15;96829.75;;;10.78;100.00
13661;BME280;6903;49.480;11.102;2023-04-24T04:46:41;96832.41;;;10.78;100.00
13661;BME280;6903;49.480;11.102;2023-04-24T04:49:06;96822.69;;;10.79;100.00
13661;BME280;6903;49.480;11.102;2023-04-24T04:51:33;96830.59;;;10.79;100.00
13661;BME280;6903;49.480;11.102;2023-04-24T04:53:58;96829.91;;;10.77;100.00
13661;BME280;6903;49.480;11.102;2023-04-24T04:56:24;96832.69;;;10.75;100.00
13661;BME280;6903;49.480;11.102;2023-04-24T04:58:49;96828.84;;;10.87;100.00
13661;BME280;6903;49.480;11.102;2023-04-24T05:01:15;96831.06;;;10.92;100.00
13661;BME280;6903;49.480;11.102;2023-04-24T05:03:40;96830.44;;;10.98;100.00
13661;BME280;6903;49.480;11.102;2023-04-24T05:06:06;96840.91;;;11.07;100.00
13661;BME280;6903;49.480;11.102;2023-04-24T05:08:31;96849.19;;;11.12;100.00
13661;BME280;6903;49.480;11.102;2023-04-24T05:10:56;96846.94;;;11.17;100.00
13661;BME280;6903;49.480;11.102;2023-04-24T05:13:22;96846.47;;;11.22;100.00
13661;BME280;6903;49.480;11.102;2023-04-24T05:15:47;96850.44;;;11.26;100.00
13661;BME280;6903;49.480;11.102;2023-04-24T05:18:12;96844.91;;;11.29;100.00
13661;BME280;6903;49.480;11.102;2023-04-24T05:20:38;96850.66;;;11.32;100.00
13661;BME280;6903;49.480;11.102;2023-04-24T05:23:03;96862.44;;;11.38;100.00
13661;BME280;6903;49.480;11.102;2023-04-24T05:25:28;96862.34;;;11.48;100.00
13661;BME280;6903;49.480;11.102;2023-04-24T05:27:54;96861.41;;;11.57;100.00
13661;BME280;6903;49.480;11.102;2023-04-24T05:30:19;96864.13;;;11.65;100.00
13661;BME280;6903;49.480;11.102;2023-04-24T05:32:45;96868.34;;;11.75;100.00
13661;BME280;6903;49.480;11.102;2023-04-24T05:35:10;96860.63;;;11.82;100.00
13661;BME280;6903;49.480;11.102;2023-04-24T05:37:35;96865.13;;;11.89;100.00
13661;BME280;6903;49.480;11.102;2023-04-24T05:40:01;96869.13;;;11.93;100.00
13661;BME280;6903;49.480;11.102;2023-04-24T05:42:26;96881.19;;;11.96;100.00
13661;BME280;6903;49.480;11.102;2023-04-24T05:44:51;96877.09;;;12.01;100.00
13661;BME280;6903;49.480;11.102;2023-04-24T05:47:19;96885.22;;;12.08;100.00
13661;BME280;6903;49.480;11.102;2023-04-24T05:49:44;96877.19;;;12.17;100.00
13661;BME280;6903;49.480;11.102;2023-04-24T05:52:09;96873.41;;;12.28;100.00
13661;BME280;6903;49.480;11.102;2023-04-24T05:54:35;96874.59;;;12.33;100.00
13661;BME280;6903;49.480;11.102;2023-04-24T05:57:00;96885.69;;;12.37;100.00
13661;BME280;6903;49.480;11.102;2023-04-24T05:59:29;96888.53;;;12.43;100.00
13661;BME280;6903;49.480;11.102;2023-04-24T06:01:54;96882.94;;;12.46;100.00
13661;BME280;6903;49.480;11.102;2023-04-24T06:04:20;96882.59;;;12.49;100.00
13661;BME280;6903;49.480;11.102;2023-04-24T06:06:45;96882.28;;;12.52;100.00
13661;BME280;6903;49.480;11.102;2023-04-24T06:09:10;96880.97;;;12.56;100.00
13661;BME280;6903;49.480;11.102;2023-04-24T06:11:37;96878.34;;;12.64;100.00
13661;BME280;6903;49.480;11.102;2023-04-24T06:14:02;96876.56;;;12.73;100.00
13661;BME280;6903;49.480;11.102;2023-04-24T06:16:27;96881.19;;;12.79;100.00
13661;BME280;6903;49.480;11.102;2023-04-24T06:18:52;96874.59;;;12.83;100.00
13661;BME280;6903;49.480;11.102;2023-04-24T06:21:18;96876.59;;;12.81;100.00
13661;BME280;6903;49.480;11.102;2023-04-24T06:23:43;96887.66;;;12.84;100.00
13661;BME280;6903;49.480;11.102;2023-04-24T06:26:08;96887.50;;;12.86;100.00
13661;BME280;6903;49.480;11.102;2023-04-24T06:28:34;96889.16;;;12.87;100.00
13661;BME280;6903;49.480;11.102;2023-04-24T06:31:00;96892.63;;;12.88;100.00
13661;BME280;6903;49.480;11.102;2023-04-24T06:33:25;96896.63;;;12.92;100.00
13661;BME280;6903;49.480;11.102;2023-04-24T06:35:50;96895.59;;;12.84;100.00
13661;BME280;6903;49.480;11.102;2023-04-24T06:38:15;96904.34;;;12.77;100.00
13661;BME280;6903;49.480;11.102;2023-04-24T06:40:41;96928.50;;;12.74;100.00
13661;BME280;6903;49.480;11.102;2023-04-24T06:43:06;96924.81;;;12.67;100.00
13661;BME280;6903;49.480;11.102;2023-04-24T06:45:31;96919.97;;;12.54;100.00
13661;BME280;6903;49.480;11.102;2023-04-24T06:47:57;96908.00;;;12.42;100.00
13661;BME280;6903;49.480;11.102;2023-04-24T06:50:22;96915.75;;;12.36;100.00
13661;BME280;6903;49.480;11.102;2023-04-24T06:52:47;96913.25;;;12.34;100.00
13661;BME280;6903;49.480;11.102;2023-04-24T06:55:13;96923.16;;;12.32;100.00
13661;BME280;6903;49.480;11.102;2023-04-24T06:57:40;96916.59;;;12.36;100.00
13661;BME280;6903;49.480;11.102;2023-04-24T07:00:06;96916.59;;;12.36;100.00
13661;BME280;6903;49.480;11.102;2023-04-24T07:02:32;96926.88;;;12.47;100.00
13661;BME280;6903;49.480;11.102;2023-04-24T07:04:57;96928.75;;;12.63;100.00
13661;BME280;6903;49.480;11.102;2023-04-24T07:07:22;96926.84;;;12.81;100.00
13661;BME280;6903;49.480;11.102;2023-04-24T07:09:49;96929.00;;;12.85;100.00
13661;BME280;6903;49.480;11.102;2023-04-24T07:12:15;96935.81;;;12.96;100.00
13661;BME280;6903;49.480;11.102;2023-04-24T07:14:42;96933.41;;;13.11;100.00
13661;BME280;6903;49.480;11.102;2023-04-24T07:17:07;96931.78;;;13.26;100.00
13661;BME280;6903;49.480;11.102;2023-04-24T07:19:33;96932.63;;;13.34;100.00
13661;BME280;6903;49.480;11.102;2023-04-24T07:22:00;96945.88;;;13.50;100.00
13661;BME280;6903;49.480;11.102;2023-04-24T07:24:25;96935.97;;;13.60;100.00
13661;BME280;6903;49.480;11.102;2023-04-24T07:26:52;96941.09;;;13.86;100.00
13661;BME280;6903;49.480;11.102;2023-04-24T07:29:17;96935.75;;;14.10;100.00
13661;BME280;6903;49.480;11.102;2023-04-24T07:31:43;96939.19;;;14.43;100.00
13661;BME280;6903;49.480;11.102;2023-04-24T07:34:08;96942.13;;;14.64;100.00
13661;BME280;6903;49.480;11.102;2023-04-24T07:36:34;96948.72;;;14.68;100.00
13661;BME280;6903;49.480;11.102;2023-04-24T07:39:00;96949.06;;;14.65;100.00
13661;BME280;6903;49.480;11.102;2023-04-24T07:41:25;96949.97;;;14.49;100.00
13661;BME280;6903;49.480;11.102;2023-04-24T07:43:52;96941.38;;;14.15;100.00
13661;BME280;6903;49.480;11.102;2023-04-24T07:46:19;96949.53;;;14.05;100.00
13661;BME280;6903;49.480;11.102;2023-04-24T07:48:44;96964.56;;;14.13;100.00
13661;BME280;6903;49.480;11.102;2023-04-24T07:51:11;96957.28;;;14.23;100.00
13661;BME280;6903;49.480;11.102;2023-04-24T07:53:38;96946.66;;;14.23;100.00
13661;BME280;6903;49.480;11.102;2023-04-24T07:56:04;96959.25;;;14.21;100.00
13661;BME280;6903;49.480;11.102;2023-04-24T07:58:29;96959.44;;;14.19;100.00
13661;BME280;6903;49.480;11.102;2023-04-24T08:00:54;96957.63;;;14.28;100.00
13661;BME280;6903;49.480;11.102;2023-04-24T08:03:20;96944.53;;;14.35;100.00
13661;BME280;6903;49.480;11.102;2023-04-24T08:05:45;96955.94;;;14.43;100.00
13661;BME280;6903;49.480;11.102;2023-04-24T08:08:11;96954.72;;;14.62;100.00
13661;BME280;6903;49.480;11.102;2023-04-24T08:10:36;96959.91;;;14.94;100.00
13661;BME280;6903;49.480;11.102;2023-04-24T08:13:02;96951.59;;;15.27;100.00
13661;BME280;6903;49.480;11.102;2023-04-24T08:15:27;96955.25;;;15.57;100.00
13661;BME280;6903;49.480;11.102;2023-04-24T08:17:53;96958.38;;;15.83;100.00
13661;BME280;6903;49.480;11.102;2023-04-24T08:20:18;96960.47;;;16.10;100.00
13661;BME280;6903;49.480;11.102;2023-04-24T08:22:43;96963.91;;;16.19;100.00
13661;BME280;6903;49.480;11.102;2023-04-24T08:25:10;96968.50;;;16.25;100.00
13661;BME280;6903;49.480;11.102;2023-04-24T08:27:36;96979.28;;;16.46;100.00
13661;BME280;6903;49.480;11.102;2023-04-24T08:30:03;96978.31;;;16.39;100.00
13661;BME280;6903;49.480;11.102;2023-04-24T08:32:28;96986.84;;;16.34;100.00
13661;BME280;6903;49.480;11.102;2023-04-24T08:34:57;96989.59;;;16.26;100.00
13661;BME280;6903;49.480;11.102;2023-04-24T08:37:23;96989.50;;;16.34;100.00
13661;BME280;6903;49.480;11.102;2023-04-24T08:39:52;96997.38;;;16.28;100.00
13661;BME280;6903;49.480;11.102;2023-04-24T08:42:19;96990.22;;;16.14;100.00
13661;BME280;6903;49.480;11.102;2023-04-24T08:44:44;96986.44;;;16.23;100.00
13661;BME280;6903;49.480;11.102;2023-04-24T08:47:10;96994.34;;;16.31;100.00
13661;BME280;6903;49.480;11.102;2023-04-24T08:49:36;97001.22;;;16.62;100.00
13661;BME280;6903;49.480;11.102;2023-04-24T08:52:03;97004.34;;;16.95;100.00
13661;BME280;6903;49.480;11.102;2023-04-24T08:54:28;97000.13;;;17.15;100.00
13661;BME280;6903;49.480;11.102;2023-04-24T08:56:59;97001.28;;;17.27;99.45
13661;BME280;6903;49.480;11.102;2023-04-24T08:59:27;96999.16;;;17.37;94.33
13661;BME280;6903;49.480;11.102;2023-04-24T09:01:52;96988.59;;;17.44;91.99
13661;BME280;6903;49.480;11.102;2023-04-24T09:04:20;96994.47;;;17.39;92.78
13661;BME280;6903;49.480;11.102;2023-04-24T09:06:48;96997.19;;;17.10;90.95
13661;BME280;6903;49.480;11.102;2023-04-24T09:09:14;96990.19;;;17.09;96.48
13661;BME280;6903;49.480;11.102;2023-04-24T09:11:41;96989.56;;;17.07;93.44
13661;BME280;6903;49.480;11.102;2023-04-24T09:14:09;96992.31;;;17.14;93.80
13661;BME280;6903;49.480;11.102;2023-04-24T09:16:34;96995.63;;;17.01;92.47
13661;BME280;6903;49.480;11.102;2023-04-24T09:19:00;96994.72;;;16.94;92.29
13661;BME280;6903;49.480;11.102;2023-04-24T09:21:32;96988.38;;;17.10;92.24
13661;BME280;6903;49.480;11.102;2023-04-24T09:23:59;96995.47;;;17.38;92.21
13661;BME280;6903;49.480;11.102;2023-04-24T09:26:25;96989.38;;;17.73;90.52
13661;BME280;6903;49.480;11.102;2023-04-24T09:28:50;96981.84;;;18.04;88.55
13661;BME280;6903;49.480;11.102;2023-04-24T09:31:18;96973.75;;;18.40;88.88
13661;BME280;6903;49.480;11.102;2023-04-24T09:38:57;96985.81;;;17.87;83.06
13661;BME280;6903;49.480;11.102;2023-04-24T09:41:23;96992.91;;;17.80;84.82
13661;BME280;6903;49.480;11.102;2023-04-24T09:43:48;96992.78;;;18.09;85.99
13661;BME280;6903;49.480;11.102;2023-04-24T09:46:13;96980.84;;;18.54;84.58
13661;BME280;6903;49.480;11.102;2023-04-24T09:48:39;96983.88;;;18.79;82.98
13661;BME280;6903;49.480;11.102;2023-04-24T09:51:05;96965.34;;;19.05;79.19
13661;BME280;6903;49.480;11.102;2023-04-24T09:53:37;96967.00;;;19.12;77.94
13661;BME280;6903;49.480;11.102;2023-04-24T09:56:08;96970.78;;;19.24;76.97
13661;BME280;6903;49.480;11.102;2023-04-24T09:58:35;96986.53;;;19.53;77.41
13661;BME280;6903;49.480;11.102;2023-04-24T10:01:00;96974.63;;;19.62;65.97
13661;BME280;6903;49.480;11.102;2023-04-24T10:03:29;96977.47;;;19.48;63.37
13661;BME280;6903;49.480;11.102;2023-04-24T10:06:01;96974.81;;;19.14;58.87
13661;BME280;6903;49.480;11.102;2023-04-24T10:08:33;96978.78;;;18.84;58.84
13661;BME280;6903;49.480;11.102;2023-04-24T10:10:59;96975.41;;;18.69;59.23
13661;BME280;6903;49.480;11.102;2023-04-24T10:13:25;96970.78;;;18.56;58.51
13661;BME280;6903;49.480;11.102;2023-04-24T10:15:50;96998.03;;;18.24;59.41
13661;BME280;6903;49.480;11.102;2023-04-24T10:18:16;96981.28;;;18.58;59.22
13661;BME280;6903;49.480;11.102;2023-04-24T10:20:42;96984.00;;;18.98;55.03
13661;BME280;6903;49.480;11.102;2023-04-24T10:23:08;96983.16;;;19.32;55.67
13661;BME280;6903;49.480;11.102;2023-04-24T10:25:35;96983.09;;;19.73;53.43
13661;BME280;6903;49.480;11.102;2023-04-24T10:28:01;96977.63;;;20.39;52.31
13661;BME280;6903;49.480;11.102;2023-04-24T10:30:30;96988.34;;;20.59;51.42
13661;BME280;6903;49.480;11.102;2023-04-24T10:32:55;96990.81;;;20.60;51.63
13661;BME280;6903;49.480;11.102;2023-04-24T10:35:22;96982.53;;;20.68;51.67
13661;BME280;6903;49.480;11.102;2023-04-24T10:37:51;96991.22;;;20.64;51.21
13661;BME280;6903;49.480;11.102;2023-04-24T10:40:26;96991.63;;;20.15;53.15
13661;BME280;6903;49.480;11.102;2023-04-24T10:42:52;97009.91;;;19.92;55.85
13661;BME280;6903;49.480;11.102;2023-04-24T10:45:21;97019.09;;;19.70;58.17
13661;BME280;6903;49.480;11.102;2023-04-24T10:48:04;97026.78;;;19.32;60.78
13661;BME280;6903;49.480;11.102;2023-04-24T10:53:16;97041.50;;;18.94;61.30
13661;BME280;6903;49.480;11.102;2023-04-24T10:55:49;97037.75;;;18.82;61.04
13661;BME280;6903;49.480;11.102;2023-04-24T10:58:16;97052.56;;;18.57;60.78
13661;BME280;6903;49.480;11.102;2023-04-24T11:00:55;97059.22;;;18.25;62.16
13661;BME280;6903;49.480;11.102;2023-04-24T11:03:29;97060.84;;;17.84;60.90
13661;BME280;6903;49.480;11.102;2023-04-24T11:06:03;97078.34;;;17.43;61.63
13661;BME280;6903;49.480;11.102;2023-04-24T11:08:38;97065.69;;;17.31;61.87
13661;BME280;6903;49.480;11.102;2023-04-24T11:11:09;97062.09;;;17.24;62.45
13661;BME280;6903;49.480;11.102;2023-04-24T11:16:27;97059.63;;;16.93;63.58
13661;BME280;6903;49.480;11.102;2023-04-24T11:21:39;97057.06;;;17.29;58.37
13661;BME280;6903;49.480;11.102;2023-04-24T11:24:31;97066.81;;;17.51;57.24
13661;BME280;6903;49.480;11.102;2023-04-24T11:26:59;97068.81;;;17.63;56.38
13661;BME280;6903;49.480;11.102;2023-04-24T11:35:03;97057.78;;;18.44;53.53
13661;BME280;6903;49.480;11.102;2023-04-24T11:37:35;97058.22;;;18.48;53.53
13661;BME280;6903;49.480;11.102;2023-04-24T11:40:01;97058.97;;;18.63;54.36
13661;BME280;6903;49.480;11.102;2023-04-24T11:42:28;97056.59;;;18.74;54.52
13661;BME280;6903;49.480;11.102;2023-04-24T11:44:54;97050.50;;;18.87;54.14
13661;BME280;6903;49.480;11.102;2023-04-24T11:47:29;97047.03;;;18.93;54.92
13661;BME280;6903;49.480;11.102;2023-04-24T11:49:55;97053.44;;;18.92;54.75
13661;BME280;6903;49.480;11.102;2023-04-24T11:52:20;97048.56;;;18.74;55.33
13661;BME280;6903;49.480;11.102;2023-04-24T11:54:49;97066.66;;;18.51;55.84
13661;BME280;6903;49.480;11.102;2023-04-24T11:57:24;97068.81;;;17.99;57.11
13661;BME280;6903;49.480;11.102;2023-04-24T11:59:53;97075.06;;;17.41;58.65
13661;BME280;6903;49.480;11.102;2023-04-24T12:02:22;97070.38;;;17.14;60.28
13661;BME280;6903;49.480;11.102;2023-04-24T12:04:48;97083.16;;;17.04;61.35
13661;BME280;6903;49.480;11.102;2023-04-24T12:07:13;97078.09;;;17.09;60.27
13661;BME280;6903;49.480;11.102;2023-04-24T12:09:54;97069.38;;;17.15;59.80
13661;BME280;6903;49.480;11.102;2023-04-24T12:12:21;97071.78;;;17.25;58.65
13661;BME280;6903;49.480;11.102;2023-04-24T12:14:53;97089.97;;;17.50;58.20
13661;BME280;6903;49.480;11.102;2023-04-24T12:17:31;97082.94;;;17.78;57.68
13661;BME280;6903;49.480;11.102;2023-04-24T12:19:58;97080.81;;;18.09;56.36
13661;BME280;6903;49.480;11.102;2023-04-24T12:22:24;97086.50;;;18.42;55.68
13661;BME280;6903;49.480;11.102;2023-04-24T12:24:57;97087.69;;;18.61;54.13
13661;BME280;6903;49.480;11.102;2023-04-24T12:27:23;97080.78;;;18.45;54.15
13661;BME280;6903;49.480;11.102;2023-04-24T12:29:52;97093.19;;;18.38;55.03
13661;BME280;6903;49.480;11.102;2023-04-24T12:32:18;97089.28;;;18.34;54.94
13661;BME280;6903;49.480;11.102;2023-04-24T12:34:44;97083.50;;;18.30;54.82
13661;BME280;6903;49.480;11.102;2023-04-24T12:37:10;97093.03;;;18.40;54.56
13661;BME280;6903;49.480;11.102;2023-04-24T12:39:36;97092.63;;;18.57;54.07
13661;BME280;6903;49.480;11.102;2023-04-24T12:42:01;97087.19;;;18.72;53.96
13661;BME280;6903;49.480;11.102;2023-04-24T12:44:30;97092.72;;;18.98;53.56
13661;BME280;6903;49.480;11.102;2023-04-24T12:46:56;97089.78;;;19.20;53.65
13661;BME280;6903;49.480;11.102;2023-04-24T12:49:22;97092.84;;;19.17;52.68
13661;BME280;6903;49.480;11.102;2023-04-24T12:51:47;97099.97;;;19.04;52.30
13661;BME280;6903;49.480;11.102;2023-04-24T12:54:12;97105.00;;;18.92;51.56
13661;BME280;6903;49.480;11.102;2023-04-24T12:56:38;97100.28;;;19.22;51.39
13661;BME280;6903;49.480;11.102;2023-04-24T12:59:04;97094.13;;;19.21;51.25
13661;BME280;6903;49.480;11.102;2023-04-24T13:01:30;97105.63;;;19.22;50.67
13661;BME280;6903;49.480;11.102;2023-04-24T13:03:55;97105.56;;;19.43;50.91
13661;BME280;6903;49.480;11.102;2023-04-24T13:06:21;97110.69;;;19.38;50.96